Terminal Aerodrome Forecast
Issued by NWS

Home | Current Version | Previous Version | Text Only | Print | Product List | Glossary On
Versions: 1 2 3 4 5 6 7 8 9 10 11 12 13 14 15 16 17 18
000
FTUS43 KMPX 212300 RRA
TAFAXN
TAF
KAXN 212341Z 2200/2224 15012KT 1 1/2SM BR OVC002
     FM220800 13014KT 1/2SM -DZ FG VV001
     FM221500 12012KT 1SM -RASN BR OVC004
     FM221800 12012KT 3/4SM -SN BR OVC004=

USA.gov is the U.S. government's official web portal to all federal, state and local government web resources and services.